sensor_id;sensor_type;location;lat;lon;timestamp;P1;durP1;ratioP1;P2;durP2;ratioP2
77870;SDS011;67067;46.850;7.578;2023-02-13T00:00:43;40.38;;;23.58;;
77870;SDS011;67067;46.850;7.578;2023-02-13T00:01:43;39.80;;;22.55;;
77870;SDS011;67067;46.850;7.578;2023-02-13T00:02:44;42.27;;;24.43;;
77870;SDS011;67067;46.850;7.578;2023-02-13T00:03:44;41.47;;;23.77;;
77870;SDS011;67067;46.850;7.578;2023-02-13T00:04:45;42.80;;;25.23;;
77870;SDS011;67067;46.850;7.578;2023-02-13T00:05:45;40.13;;;23.60;;
77870;SDS011;67067;46.850;7.578;2023-02-13T00:06:48;42.38;;;25.75;;
77870;SDS011;67067;46.850;7.578;2023-02-13T00:07:51;42.65;;;25.08;;
77870;SDS011;67067;46.850;7.578;2023-02-13T00:08:51;40.33;;;24.77;;
77870;SDS011;67067;46.850;7.578;2023-02-13T00:09:54;37.90;;;22.13;;
77870;SDS011;67067;46.850;7.578;2023-02-13T00:10:55;44.65;;;25.15;;
77870;SDS011;67067;46.850;7.578;2023-02-13T00:11:55;41.90;;;24.93;;
77870;SDS011;67067;46.850;7.578;2023-02-13T00:12:58;45.15;;;25.25;;
77870;SDS011;67067;46.850;7.578;2023-02-13T00:14:02;42.20;;;24.08;;
77870;SDS011;67067;46.850;7.578;2023-02-13T00:15:03;40.47;;;23.83;;
77870;SDS011;67067;46.850;7.578;2023-02-13T00:16:04;41.78;;;24.77;;
77870;SDS011;67067;46.850;7.578;2023-02-13T00:17:05;41.37;;;24.23;;
77870;SDS011;67067;46.850;7.578;2023-02-13T00:18:06;41.08;;;23.92;;
77870;SDS011;67067;46.850;7.578;2023-02-13T00:19:06;41.53;;;25.10;;
77870;SDS011;67067;46.850;7.578;2023-02-13T00:20:09;41.75;;;23.40;;
77870;SDS011;67067;46.850;7.578;2023-02-13T00:21:11;39.60;;;22.65;;
77870;SDS011;67067;46.850;7.578;2023-02-13T00:22:12;39.45;;;22.88;;
77870;SDS011;67067;46.850;7.578;2023-02-13T00:23:15;40.20;;;23.58;;
77870;SDS011;67067;46.850;7.578;2023-02-13T00:24:16;41.10;;;23.50;;
77870;SDS011;67067;46.850;7.578;2023-02-13T00:25:16;40.60;;;23.60;;
77870;SDS011;67067;46.850;7.578;2023-02-13T00:26:17;36.57;;;21.67;;
77870;SDS011;67067;46.850;7.578;2023-02-13T00:27:20;40.58;;;23.13;;
77870;SDS011;67067;46.850;7.578;2023-02-13T00:28:21;37.03;;;22.13;;
77870;SDS011;67067;46.850;7.578;2023-02-13T00:29:21;36.77;;;21.87;;
77870;SDS011;67067;46.850;7.578;2023-02-13T00:30:25;40.60;;;23.73;;
77870;SDS011;67067;46.850;7.578;2023-02-13T00:31:25;38.63;;;23.10;;
77870;SDS011;67067;46.850;7.578;2023-02-13T00:32:26;36.93;;;20.90;;
77870;SDS011;67067;46.850;7.578;2023-02-13T00:33:28;40.05;;;24.90;;
77870;SDS011;67067;46.850;7.578;2023-02-13T00:34:28;40.07;;;23.60;;
77870;SDS011;67067;46.850;7.578;2023-02-13T00:35:31;41.42;;;23.98;;
77870;SDS011;67067;46.850;7.578;2023-02-13T00:36:32;42.87;;;24.90;;
77870;SDS011;67067;46.850;7.578;2023-02-13T00:37:33;41.03;;;22.97;;
77870;SDS011;67067;46.850;7.578;2023-02-13T00:38:34;40.93;;;23.10;;
77870;SDS011;67067;46.850;7.578;2023-02-13T00:40:35;38.25;;;22.27;;
77870;SDS011;67067;46.850;7.578;2023-02-13T00:41:36;39.60;;;22.07;;
77870;SDS011;67067;46.850;7.578;2023-02-13T00:42:37;39.15;;;22.58;;
77870;SDS011;67067;46.850;7.578;2023-02-13T00:43:37;41.27;;;22.60;;
77870;SDS011;67067;46.850;7.578;2023-02-13T00:44:40;40.00;;;22.50;;
77870;SDS011;67067;46.850;7.578;2023-02-13T00:45:41;41.27;;;24.70;;
77870;SDS011;67067;46.850;7.578;2023-02-13T00:46:42;42.97;;;23.98;;
77870;SDS011;67067;46.850;7.578;2023-02-13T00:47:42;39.10;;;23.97;;
77870;SDS011;67067;46.850;7.578;2023-02-13T00:48:43;41.28;;;23.70;;
77870;SDS011;67067;46.850;7.578;2023-02-13T00:49:44;41.22;;;24.02;;
77870;SDS011;67067;46.850;7.578;2023-02-13T00:50:47;43.95;;;25.05;;
77870;SDS011;67067;46.850;7.578;2023-02-13T00:51:48;41.87;;;24.03;;
77870;SDS011;67067;46.850;7.578;2023-02-13T00:52:50;40.30;;;23.23;;
77870;SDS011;67067;46.850;7.578;2023-02-13T00:53:53;41.67;;;25.13;;
77870;SDS011;67067;46.850;7.578;2023-02-13T00:54:55;42.05;;;24.77;;
77870;SDS011;67067;46.850;7.578;2023-02-13T00:55:58;43.50;;;24.73;;
77870;SDS011;67067;46.850;7.578;2023-02-13T00:56:59;41.75;;;23.55;;
77870;SDS011;67067;46.850;7.578;2023-02-13T00:58:00;43.77;;;25.07;;
77870;SDS011;67067;46.850;7.578;2023-02-13T00:59:03;42.13;;;23.55;;
77870;SDS011;67067;46.850;7.578;2023-02-13T01:00:06;41.17;;;24.70;;
77870;SDS011;67067;46.850;7.578;2023-02-13T01:01:07;37.88;;;22.40;;
77870;SDS011;67067;46.850;7.578;2023-02-13T01:02:08;42.88;;;25.20;;
77870;SDS011;67067;46.850;7.578;2023-02-13T01:03:08;39.43;;;22.97;;
77870;SDS011;67067;46.850;7.578;2023-02-13T01:04:09;43.67;;;24.60;;
77870;SDS011;67067;46.850;7.578;2023-02-13T01:05:10;42.75;;;23.25;;
77870;SDS011;67067;46.850;7.578;2023-02-13T01:06:11;38.97;;;22.20;;
77870;SDS011;67067;46.850;7.578;2023-02-13T01:07:11;42.90;;;25.13;;
77870;SDS011;67067;46.850;7.578;2023-02-13T01:08:18;40.50;;;23.95;;
77870;SDS011;67067;46.850;7.578;2023-02-13T01:09:20;41.80;;;24.30;;
77870;SDS011;67067;46.850;7.578;2023-02-13T01:10:21;45.00;;;24.70;;
77870;SDS011;67067;46.850;7.578;2023-02-13T01:11:23;40.33;;;24.58;;
77870;SDS011;67067;46.850;7.578;2023-02-13T01:12:23;40.57;;;24.37;;
77870;SDS011;67067;46.850;7.578;2023-02-13T01:13:24;39.20;;;22.77;;
77870;SDS011;67067;46.850;7.578;2023-02-13T01:14:26;42.05;;;24.23;;
77870;SDS011;67067;46.850;7.578;2023-02-13T01:15:26;40.17;;;23.57;;
77870;SDS011;67067;46.850;7.578;2023-02-13T01:16:27;42.60;;;24.75;;
77870;SDS011;67067;46.850;7.578;2023-02-13T01:17:29;39.45;;;22.77;;
77870;SDS011;67067;46.850;7.578;2023-02-13T01:18:30;44.37;;;25.40;;
77870;SDS011;67067;46.850;7.578;2023-02-13T01:19:30;43.00;;;23.87;;
77870;SDS011;67067;46.850;7.578;2023-02-13T01:20:31;40.25;;;22.70;;
77870;SDS011;67067;46.850;7.578;2023-02-13T01:21:33;42.22;;;24.25;;
77870;SDS011;67067;46.850;7.578;2023-02-13T01:22:33;41.50;;;23.83;;
77870;SDS011;67067;46.850;7.578;2023-02-13T01:23:35;37.97;;;22.05;;
77870;SDS011;67067;46.850;7.578;2023-02-13T01:24:37;42.08;;;24.00;;
77870;SDS011;67067;46.850;7.578;2023-02-13T01:25:38;40.60;;;22.73;;
77870;SDS011;67067;46.850;7.578;2023-02-13T01:26:42;44.95;;;24.40;;
77870;SDS011;67067;46.850;7.578;2023-02-13T01:27:43;39.23;;;24.10;;
77870;SDS011;67067;46.850;7.578;2023-02-13T01:28:44;42.42;;;24.52;;
77870;SDS011;67067;46.850;7.578;2023-02-13T01:29:45;41.97;;;24.02;;
77870;SDS011;67067;46.850;7.578;2023-02-13T01:30:51;43.77;;;25.40;;
77870;SDS011;67067;46.850;7.578;2023-02-13T01:31:55;44.60;;;25.80;;
77870;SDS011;67067;46.850;7.578;2023-02-13T01:33:02;43.10;;;24.83;;
77870;SDS011;67067;46.850;7.578;2023-02-13T01:34:06;42.95;;;25.42;;
77870;SDS011;67067;46.850;7.578;2023-02-13T01:35:07;42.70;;;25.57;;
77870;SDS011;67067;46.850;7.578;2023-02-13T01:36:09;44.55;;;25.27;;
77870;SDS011;67067;46.850;7.578;2023-02-13T01:37:11;45.47;;;24.80;;
77870;SDS011;67067;46.850;7.578;2023-02-13T01:38:12;43.03;;;24.50;;
77870;SDS011;67067;46.850;7.578;2023-02-13T01:39:13;43.63;;;25.08;;
77870;SDS011;67067;46.850;7.578;2023-02-13T01:40:14;43.03;;;24.27;;
77870;SDS011;67067;46.850;7.578;2023-02-13T01:41:16;38.95;;;22.17;;
77870;SDS011;67067;46.850;7.578;2023-02-13T01:42:21;45.43;;;25.60;;
77870;SDS011;67067;46.850;7.578;2023-02-13T01:44:54;39.55;;;23.13;;
77870;SDS011;67067;46.850;7.578;2023-02-13T01:46:02;39.28;;;21.25;;
77870;SDS011;67067;46.850;7.578;2023-02-13T01:48:05;42.47;;;23.83;;
77870;SDS011;67067;46.850;7.578;2023-02-13T01:49:28;37.75;;;21.33;;
77870;SDS011;67067;46.850;7.578;2023-02-13T01:51:35;42.88;;;23.75;;
77870;SDS011;67067;46.850;7.578;2023-02-13T01:52:40;38.65;;;22.25;;
77870;SDS011;67067;46.850;7.578;2023-02-13T01:53:49;40.78;;;23.23;;
77870;SDS011;67067;46.850;7.578;2023-02-13T01:55:02;38.05;;;20.30;;
77870;SDS011;67067;46.850;7.578;2023-02-13T01:56:17;38.63;;;22.25;;
77870;SDS011;67067;46.850;7.578;2023-02-13T01:57:20;37.50;;;22.02;;
77870;SDS011;67067;46.850;7.578;2023-02-13T01:58:25;38.30;;;21.58;;
77870;SDS011;67067;46.850;7.578;2023-02-13T01:59:33;37.90;;;21.08;;
77870;SDS011;67067;46.850;7.578;2023-02-13T02:00:40;38.42;;;20.73;;
77870;SDS011;67067;46.850;7.578;2023-02-13T02:01:42;36.88;;;22.25;;
77870;SDS011;67067;46.850;7.578;2023-02-13T02:02:52;35.20;;;20.75;;
77870;SDS011;67067;46.850;7.578;2023-02-13T02:04:01;33.30;;;18.63;;
77870;SDS011;67067;46.850;7.578;2023-02-13T02:05:08;34.75;;;18.95;;
77870;SDS011;67067;46.850;7.578;2023-02-13T02:06:10;37.00;;;19.35;;
77870;SDS011;67067;46.850;7.578;2023-02-13T02:07:22;34.35;;;18.60;;
77870;SDS011;67067;46.850;7.578;2023-02-13T02:08:25;33.83;;;18.23;;
77870;SDS011;67067;46.850;7.578;2023-02-13T02:09:28;34.90;;;18.42;;
77870;SDS011;67067;46.850;7.578;2023-02-13T02:10:36;32.10;;;17.10;;
77870;SDS011;67067;46.850;7.578;2023-02-13T02:11:41;35.90;;;19.52;;
77870;SDS011;67067;46.850;7.578;2023-02-13T02:12:56;35.17;;;19.08;;
77870;SDS011;67067;46.850;7.578;2023-02-13T02:14:04;33.13;;;17.30;;
77870;SDS011;67067;46.850;7.578;2023-02-13T02:15:07;35.40;;;18.60;;
77870;SDS011;67067;46.850;7.578;2023-02-13T02:16:10;35.15;;;19.20;;
77870;SDS011;67067;46.850;7.578;2023-02-13T02:17:11;34.88;;;18.83;;
77870;SDS011;67067;46.850;7.578;2023-02-13T02:18:16;36.60;;;19.77;;
77870;SDS011;67067;46.850;7.578;2023-02-13T02:21:55;31.05;;;16.50;;
77870;SDS011;67067;46.850;7.578;2023-02-13T02:34:45;31.90;;;16.77;;
77870;SDS011;67067;46.850;7.578;2023-02-13T02:41:23;31.98;;;16.55;;
77870;SDS011;67067;46.850;7.578;2023-02-13T02:44:12;32.42;;;16.30;;
77870;SDS011;67067;46.850;7.578;2023-02-13T02:45:27;31.23;;;16.02;;
77870;SDS011;67067;46.850;7.578;2023-02-13T02:46:50;35.17;;;17.70;;
77870;SDS011;67067;46.850;7.578;2023-02-13T02:50:02;32.03;;;16.65;;
77870;SDS011;67067;46.850;7.578;2023-02-13T02:51:20;34.35;;;17.95;;
77870;SDS011;67067;46.850;7.578;2023-02-13T02:53:05;37.78;;;19.73;;
77870;SDS011;67067;46.850;7.578;2023-02-13T02:54:14;34.42;;;18.63;;
77870;SDS011;67067;46.850;7.578;2023-02-13T02:55:48;32.78;;;17.13;;
77870;SDS011;67067;46.850;7.578;2023-02-13T02:57:12;32.83;;;17.58;;
77870;SDS011;67067;46.850;7.578;2023-02-13T02:58:20;33.08;;;16.77;;
77870;SDS011;67067;46.850;7.578;2023-02-13T02:59:43;35.28;;;17.75;;
77870;SDS011;67067;46.850;7.578;2023-02-13T03:01:12;35.28;;;17.70;;
77870;SDS011;67067;46.850;7.578;2023-02-13T03:02:34;32.63;;;17.20;;
77870;SDS011;67067;46.850;7.578;2023-02-13T03:03:56;35.53;;;19.08;;
77870;SDS011;67067;46.850;7.578;2023-02-13T03:05:37;34.17;;;18.77;;
77870;SDS011;67067;46.850;7.578;2023-02-13T03:06:58;34.03;;;19.30;;
77870;SDS011;67067;46.850;7.578;2023-02-13T03:08:03;37.30;;;18.42;;
77870;SDS011;67067;46.850;7.578;2023-02-13T03:09:04;34.35;;;18.92;;
77870;SDS011;67067;46.850;7.578;2023-02-13T03:10:30;34.83;;;19.08;;
77870;SDS011;67067;46.850;7.578;2023-02-13T03:11:53;34.92;;;18.58;;
77870;SDS011;67067;46.850;7.578;2023-02-13T03:13:16;34.35;;;17.70;;
77870;SDS011;67067;46.850;7.578;2023-02-13T03:14:32;35.92;;;18.77;;
77870;SDS011;67067;46.850;7.578;2023-02-13T03:15:35;34.17;;;17.77;;
77870;SDS011;67067;46.850;7.578;2023-02-13T03:16:57;33.90;;;18.60;;
77870;SDS011;67067;46.850;7.578;2023-02-13T03:18:17;32.25;;;17.02;;
77870;SDS011;67067;46.850;7.578;2023-02-13T03:20:57;32.17;;;15.95;;
77870;SDS011;67067;46.850;7.578;2023-02-13T03:22:34;31.10;;;16.50;;
77870;SDS011;67067;46.850;7.578;2023-02-13T03:23:46;31.52;;;16.48;;
77870;SDS011;67067;46.850;7.578;2023-02-13T03:27:14;29.88;;;15.63;;
77870;SDS011;67067;46.850;7.578;2023-02-13T03:30:18;29.77;;;15.32;;
77870;SDS011;67067;46.850;7.578;2023-02-13T03:32:52;29.30;;;15.13;;
77870;SDS011;67067;46.850;7.578;2023-02-13T03:34:12;31.73;;;15.77;;
77870;SDS011;67067;46.850;7.578;2023-02-13T03:37:07;30.27;;;15.25;;
77870;SDS011;67067;46.850;7.578;2023-02-13T03:38:54;30.30;;;15.07;;
77870;SDS011;67067;46.850;7.578;2023-02-13T03:40:12;28.58;;;14.65;;
77870;SDS011;67067;46.850;7.578;2023-02-13T03:41:41;28.38;;;13.95;;
77870;SDS011;67067;46.850;7.578;2023-02-13T03:42:44;28.60;;;14.55;;
77870;SDS011;67067;46.850;7.578;2023-02-13T03:45:22;32.15;;;16.40;;
77870;SDS011;67067;46.850;7.578;2023-02-13T03:46:46;33.13;;;16.75;;
77870;SDS011;67067;46.850;7.578;2023-02-13T03:47:54;30.67;;;15.52;;
77870;SDS011;67067;46.850;7.578;2023-02-13T03:48:56;29.90;;;15.63;;
77870;SDS011;67067;46.850;7.578;2023-02-13T03:50:17;29.80;;;16.00;;
77870;SDS011;67067;46.850;7.578;2023-02-13T03:51:24;30.70;;;15.55;;
77870;SDS011;67067;46.850;7.578;2023-02-13T03:52:32;30.92;;;15.25;;
77870;SDS011;67067;46.850;7.578;2023-02-13T03:53:39;31.27;;;16.20;;
77870;SDS011;67067;46.850;7.578;2023-02-13T03:56:11;32.38;;;16.80;;
77870;SDS011;67067;46.850;7.578;2023-02-13T03:57:33;30.50;;;15.90;;
77870;SDS011;67067;46.850;7.578;2023-02-13T03:58:56;33.15;;;17.25;;
77870;SDS011;67067;46.850;7.578;2023-02-13T04:00:17;32.53;;;15.93;;
77870;SDS011;67067;46.850;7.578;2023-02-13T04:01:21;31.58;;;17.30;;
77870;SDS011;67067;46.850;7.578;2023-02-13T04:02:27;31.35;;;16.73;;
77870;SDS011;67067;46.850;7.578;2023-02-13T04:03:43;34.70;;;17.27;;
77870;SDS011;67067;46.850;7.578;2023-02-13T04:05:53;32.45;;;17.55;;
77870;SDS011;67067;46.850;7.578;2023-02-13T04:07:09;47.60;;;18.05;;
77870;SDS011;67067;46.850;7.578;2023-02-13T04:08:28;32.10;;;16.88;;
77870;SDS011;67067;46.850;7.578;2023-02-13T04:09:32;32.28;;;17.52;;
77870;SDS011;67067;46.850;7.578;2023-02-13T04:10:38;31.15;;;17.08;;
77870;SDS011;67067;46.850;7.578;2023-02-13T04:12:08;33.97;;;18.08;;
77870;SDS011;67067;46.850;7.578;2023-02-13T04:13:34;35.85;;;18.67;;
77870;SDS011;67067;46.850;7.578;2023-02-13T04:14:39;34.30;;;18.35;;
77870;SDS011;67067;46.850;7.578;2023-02-13T04:15:49;33.83;;;18.60;;
77870;SDS011;67067;46.850;7.578;2023-02-13T04:18:27;33.53;;;19.00;;
77870;SDS011;67067;46.850;7.578;2023-02-13T04:19:31;35.15;;;18.42;;
77870;SDS011;67067;46.850;7.578;2023-02-13T04:21:33;32.60;;;17.33;;
77870;SDS011;67067;46.850;7.578;2023-02-13T04:22:40;35.30;;;17.83;;
77870;SDS011;67067;46.850;7.578;2023-02-13T04:23:42;35.10;;;19.42;;
77870;SDS011;67067;46.850;7.578;2023-02-13T04:24:43;32.80;;;17.83;;
77870;SDS011;67067;46.850;7.578;2023-02-13T04:25:46;35.75;;;18.52;;
77870;SDS011;67067;46.850;7.578;2023-02-13T04:26:49;35.17;;;18.63;;
77870;SDS011;67067;46.850;7.578;2023-02-13T04:27:52;34.38;;;18.90;;
77870;SDS011;67067;46.850;7.578;2023-02-13T04:28:52;34.20;;;19.47;;
77870;SDS011;67067;46.850;7.578;2023-02-13T04:29:56;35.43;;;18.23;;
77870;SDS011;67067;46.850;7.578;2023-02-13T04:30:57;36.13;;;18.92;;
77870;SDS011;67067;46.850;7.578;2023-02-13T04:31:57;34.30;;;18.37;;
77870;SDS011;67067;46.850;7.578;2023-02-13T04:33:00;36.28;;;18.08;;
77870;SDS011;67067;46.850;7.578;2023-02-13T04:34:06;31.38;;;16.45;;
77870;SDS011;67067;46.850;7.578;2023-02-13T04:35:06;33.47;;;17.30;;
77870;SDS011;67067;46.850;7.578;2023-02-13T04:36:08;36.38;;;18.80;;
77870;SDS011;67067;46.850;7.578;2023-02-13T04:37:09;37.17;;;20.37;;
77870;SDS011;67067;46.850;7.578;2023-02-13T04:38:09;34.73;;;17.73;;
77870;SDS011;67067;46.850;7.578;2023-02-13T04:39:10;35.67;;;18.50;;
77870;SDS011;67067;46.850;7.578;2023-02-13T04:40:11;33.58;;;17.77;;
77870;SDS011;67067;46.850;7.578;2023-02-13T04:41:11;33.00;;;16.97;;
77870;SDS011;67067;46.850;7.578;2023-02-13T04:42:12;32.23;;;16.83;;
77870;SDS011;67067;46.850;7.578;2023-02-13T04:43:15;32.55;;;17.10;;
77870;SDS011;67067;46.850;7.578;2023-02-13T04:44:16;30.23;;;15.67;;
77870;SDS011;67067;46.850;7.578;2023-02-13T04:45:19;34.40;;;17.55;;
77870;SDS011;67067;46.850;7.578;2023-02-13T04:46:22;34.63;;;17.95;;
77870;SDS011;67067;46.850;7.578;2023-02-13T04:47:22;34.57;;;18.83;;
77870;SDS011;67067;46.850;7.578;2023-02-13T04:48:23;33.27;;;16.90;;
77870;SDS011;67067;46.850;7.578;2023-02-13T04:49:23;33.10;;;17.70;;
77870;SDS011;67067;46.850;7.578;2023-02-13T04:50:26;32.00;;;16.90;;
77870;SDS011;67067;46.850;7.578;2023-02-13T04:51:27;30.98;;;16.42;;
77870;SDS011;67067;46.850;7.578;2023-02-13T04:52:27;31.90;;;17.50;;
77870;SDS011;67067;46.850;7.578;2023-02-13T04:53:28;34.17;;;18.07;;
77870;SDS011;67067;46.850;7.578;2023-02-13T04:54:28;32.50;;;17.47;;
77870;SDS011;67067;46.850;7.578;2023-02-13T04:55:29;33.93;;;17.77;;
77870;SDS011;67067;46.850;7.578;2023-02-13T04:56:31;32.03;;;17.53;;
77870;SDS011;67067;46.850;7.578;2023-02-13T04:57:32;32.75;;;17.27;;
77870;SDS011;67067;46.850;7.578;2023-02-13T04:58:32;32.67;;;17.10;;
77870;SDS011;67067;46.850;7.578;2023-02-13T04:59:33;36.33;;;17.90;;
77870;SDS011;67067;46.850;7.578;2023-02-13T05:00:33;34.37;;;18.33;;
77870;SDS011;67067;46.850;7.578;2023-02-13T05:01:34;32.03;;;16.80;;
77870;SDS011;67067;46.850;7.578;2023-02-13T05:02:34;32.63;;;17.30;;
77870;SDS011;67067;46.850;7.578;2023-02-13T05:03:35;32.70;;;17.30;;
77870;SDS011;67067;46.850;7.578;2023-02-13T05:04:35;33.17;;;17.17;;
77870;SDS011;67067;46.850;7.578;2023-02-13T05:05:36;32.17;;;16.90;;
77870;SDS011;67067;46.850;7.578;2023-02-13T05:07:38;32.67;;;16.30;;
77870;SDS011;67067;46.850;7.578;2023-02-13T05:08:39;38.47;;;18.00;;
77870;SDS011;67067;46.850;7.578;2023-02-13T05:09:40;32.37;;;17.40;;
77870;SDS011;67067;46.850;7.578;2023-02-13T05:10:40;30.90;;;16.27;;
77870;SDS011;67067;46.850;7.578;2023-02-13T05:11:41;32.17;;;17.63;;
77870;SDS011;67067;46.850;7.578;2023-02-13T05:12:42;34.13;;;17.37;;
77870;SDS011;67067;46.850;7.578;2023-02-13T05:13:42;33.97;;;17.10;;
77870;SDS011;67067;46.850;7.578;2023-02-13T05:14:42;37.27;;;16.23;;
77870;SDS011;67067;46.850;7.578;2023-02-13T05:15:43;33.43;;;17.27;;
77870;SDS011;67067;46.850;7.578;2023-02-13T05:16:43;36.33;;;19.13;;
77870;SDS011;67067;46.850;7.578;2023-02-13T05:17:46;33.55;;;18.42;;
77870;SDS011;67067;46.850;7.578;2023-02-13T05:18:47;34.03;;;17.90;;
77870;SDS011;67067;46.850;7.578;2023-02-13T05:19:47;31.97;;;17.10;;
77870;SDS011;67067;46.850;7.578;2023-02-13T05:20:48;34.57;;;18.33;;
77870;SDS011;67067;46.850;7.578;2023-02-13T05:22:09;38.78;;;19.77;;
77870;SDS011;67067;46.850;7.578;2023-02-13T05:23:28;35.22;;;17.67;;
77870;SDS011;67067;46.850;7.578;2023-02-13T05:24:29;36.83;;;17.90;;
77870;SDS011;67067;46.850;7.578;2023-02-13T05:25:29;32.90;;;17.67;;
77870;SDS011;67067;46.850;7.578;2023-02-13T05:26:31;35.25;;;19.05;;
77870;SDS011;67067;46.850;7.578;2023-02-13T05:27:31;34.33;;;18.67;;
77870;SDS011;67067;46.850;7.578;2023-02-13T05:28:34;35.43;;;18.87;;
77870;SDS011;67067;46.850;7.578;2023-02-13T05:29:53;32.17;;;16.50;;
77870;SDS011;67067;46.850;7.578;2023-02-13T05:32:35;32.95;;;16.77;;
77870;SDS011;67067;46.850;7.578;2023-02-13T05:33:36;31.80;;;17.73;;
77870;SDS011;67067;46.850;7.578;2023-02-13T05:34:36;35.83;;;18.52;;
77870;SDS011;67067;46.850;7.578;2023-02-13T05:35:37;34.50;;;17.80;;
77870;SDS011;67067;46.850;7.578;2023-02-13T05:36:40;34.08;;;18.90;;
77870;SDS011;67067;46.850;7.578;2023-02-13T05:37:41;35.22;;;18.98;;
77870;SDS011;67067;46.850;7.578;2023-02-13T05:38:41;34.63;;;18.97;;
77870;SDS011;67067;46.850;7.578;2023-02-13T05:39:42;35.37;;;19.30;;
77870;SDS011;67067;46.850;7.578;2023-02-13T05:40:42;33.90;;;18.23;;
77870;SDS011;67067;46.850;7.578;2023-02-13T05:41:44;31.33;;;16.47;;
77870;SDS011;67067;46.850;7.578;2023-02-13T05:42:45;34.35;;;17.42;;
77870;SDS011;67067;46.850;7.578;2023-02-13T05:43:47;34.22;;;17.88;;
77870;SDS011;67067;46.850;7.578;2023-02-13T05:44:51;35.00;;;17.98;;
77870;SDS011;67067;46.850;7.578;2023-02-13T05:45:59;33.97;;;18.67;;
77870;SDS011;67067;46.850;7.578;2023-02-13T05:47:05;34.35;;;17.88;;
77870;SDS011;67067;46.850;7.578;2023-02-13T05:48:06;35.23;;;19.77;;
77870;SDS011;67067;46.850;7.578;2023-02-13T05:49:09;35.90;;;19.37;;
77870;SDS011;67067;46.850;7.578;2023-02-13T05:50:14;36.10;;;19.25;;
77870;SDS011;67067;46.850;7.578;2023-02-13T05:51:15;35.17;;;18.05;;
77870;SDS011;67067;46.850;7.578;2023-02-13T05:52:17;33.00;;;18.13;;
77870;SDS011;67067;46.850;7.578;2023-02-13T05:53:18;34.83;;;19.75;;
77870;SDS011;67067;46.850;7.578;2023-02-13T05:54:23;38.42;;;19.05;;
77870;SDS011;67067;46.850;7.578;2023-02-13T05:55:23;35.20;;;19.17;;
77870;SDS011;67067;46.850;7.578;2023-02-13T05:56:26;33.80;;;18.33;;
77870;SDS011;67067;46.850;7.578;2023-02-13T05:57:30;36.65;;;19.67;;
77870;SDS011;67067;46.850;7.578;2023-02-13T05:58:30;38.15;;;20.75;;
77870;SDS011;67067;46.850;7.578;2023-02-13T05:59:31;35.40;;;19.02;;
77870;SDS011;67067;46.850;7.578;2023-02-13T06:00:32;35.70;;;19.63;;
77870;SDS011;67067;46.850;7.578;2023-02-13T06:01:32;37.40;;;19.47;;
77870;SDS011;67067;46.850;7.578;2023-02-13T06:02:33;34.83;;;18.13;;
77870;SDS011;67067;46.850;7.578;2023-02-13T06:03:33;34.97;;;20.07;;
77870;SDS011;67067;46.850;7.578;2023-02-13T06:04:34;38.03;;;20.93;;
77870;SDS011;67067;46.850;7.578;2023-02-13T06:05:34;37.57;;;19.73;;
77870;SDS011;67067;46.850;7.578;2023-02-13T06:06:35;36.67;;;20.17;;
77870;SDS011;67067;46.850;7.578;2023-02-13T06:07:36;33.97;;;18.70;;
77870;SDS011;67067;46.850;7.578;2023-02-13T06:08:38;37.33;;;19.97;;
77870;SDS011;67067;46.850;7.578;2023-02-13T06:09:39;38.25;;;19.70;;
77870;SDS011;67067;46.850;7.578;2023-02-13T06:10:39;35.67;;;19.47;;
77870;SDS011;67067;46.850;7.578;2023-02-13T06:11:40;35.00;;;19.33;;
77870;SDS011;67067;46.850;7.578;2023-02-13T06:12:41;36.13;;;19.57;;
77870;SDS011;67067;46.850;7.578;2023-02-13T06:13:44;37.90;;;18.73;;
77870;SDS011;67067;46.850;7.578;2023-02-13T06:14:47;36.13;;;19.80;;
77870;SDS011;67067;46.850;7.578;2023-02-13T06:15:48;38.77;;;20.33;;
77870;SDS011;67067;46.850;7.578;2023-02-13T06:16:52;35.60;;;19.38;;
77870;SDS011;67067;46.850;7.578;2023-02-13T06:17:52;36.55;;;19.40;;
77870;SDS011;67067;46.850;7.578;2023-02-13T06:18:53;35.20;;;18.97;;
77870;SDS011;67067;46.850;7.578;2023-02-13T06:19:55;35.30;;;18.92;;
77870;SDS011;67067;46.850;7.578;2023-02-13T06:20:56;35.90;;;19.47;;
77870;SDS011;67067;46.850;7.578;2023-02-13T06:21:58;37.72;;;19.27;;
77870;SDS011;67067;46.850;7.578;2023-02-13T06:23:01;36.70;;;20.10;;
77870;SDS011;67067;46.850;7.578;2023-02-13T06:24:06;38.58;;;19.77;;
77870;SDS011;67067;46.850;7.578;2023-02-13T06:25:07;37.80;;;20.88;;
77870;SDS011;67067;46.850;7.578;2023-02-13T06:26:08;37.50;;;19.67;;
77870;SDS011;67067;46.850;7.578;2023-02-13T06:27:09;35.33;;;19.47;;
77870;SDS011;67067;46.850;7.578;2023-02-13T06:28:11;34.33;;;18.97;;
77870;SDS011;67067;46.850;7.578;2023-02-13T06:29:12;37.38;;;20.30;;
77870;SDS011;67067;46.850;7.578;2023-02-13T06:30:13;37.50;;;20.30;;
77870;SDS011;67067;46.850;7.578;2023-02-13T06:31:14;38.08;;;19.73;;
77870;SDS011;67067;46.850;7.578;2023-02-13T06:32:14;35.50;;;19.93;;
77870;SDS011;67067;46.850;7.578;2023-02-13T06:33:17;35.22;;;19.35;;
77870;SDS011;67067;46.850;7.578;2023-02-13T06:34:18;41.27;;;21.50;;
77870;SDS011;67067;46.850;7.578;2023-02-13T06:35:18;36.80;;;20.40;;
77870;SDS011;67067;46.850;7.578;2023-02-13T06:36:19;39.10;;;20.77;;
77870;SDS011;67067;46.850;7.578;2023-02-13T06:37:19;37.27;;;21.37;;
77870;SDS011;67067;46.850;7.578;2023-02-13T06:38:20;38.47;;;20.50;;
77870;SDS011;67067;46.850;7.578;2023-02-13T06:39:20;37.33;;;19.52;;
77870;SDS011;67067;46.850;7.578;2023-02-13T06:40:21;36.13;;;19.10;;
77870;SDS011;67067;46.850;7.578;2023-02-13T06:41:22;37.03;;;20.07;;
77870;SDS011;67067;46.850;7.578;2023-02-13T06:42:22;36.33;;;19.57;;
77870;SDS011;67067;46.850;7.578;2023-02-13T06:43:23;36.07;;;18.97;;
77870;SDS011;67067;46.850;7.578;2023-02-13T06:44:25;35.80;;;19.33;;
77870;SDS011;67067;46.850;7.578;2023-02-13T06:45:28;37.33;;;19.90;;
77870;SDS011;67067;46.850;7.578;2023-02-13T06:46:29;36.70;;;20.67;;
77870;SDS011;67067;46.850;7.578;2023-02-13T06:47:32;38.73;;;22.53;;
77870;SDS011;67067;46.850;7.578;2023-02-13T06:48:32;37.45;;;20.35;;
77870;SDS011;67067;46.850;7.578;2023-02-13T06:49:35;38.15;;;21.73;;
77870;SDS011;67067;46.850;7.578;2023-02-13T06:50:35;41.13;;;21.23;;
77870;SDS011;67067;46.850;7.578;2023-02-13T06:51:38;38.40;;;20.70;;
77870;SDS011;67067;46.850;7.578;2023-02-13T06:52:39;40.47;;;22.17;;
77870;SDS011;67067;46.850;7.578;2023-02-13T06:53:44;38.90;;;21.05;;
77870;SDS011;67067;46.850;7.578;2023-02-13T06:54:45;35.03;;;19.70;;
77870;SDS011;67067;46.850;7.578;2023-02-13T06:55:45;37.40;;;21.53;;
77870;SDS011;67067;46.850;7.578;2023-02-13T06:56:46;40.03;;;21.53;;
77870;SDS011;67067;46.850;7.578;2023-02-13T06:57:47;34.30;;;18.93;;
77870;SDS011;67067;46.850;7.578;2023-02-13T06:58:50;38.28;;;19.85;;
77870;SDS011;67067;46.850;7.578;2023-02-13T06:59:50;36.30;;;19.93;;
77870;SDS011;67067;46.850;7.578;2023-02-13T07:00:51;37.27;;;19.63;;
77870;SDS011;67067;46.850;7.578;2023-02-13T07:01:51;36.30;;;20.48;;
77870;SDS011;67067;46.850;7.578;2023-02-13T07:02:52;35.63;;;19.13;;
77870;SDS011;67067;46.850;7.578;2023-02-13T07:03:53;33.50;;;17.60;;
77870;SDS011;67067;46.850;7.578;2023-02-13T07:04:53;35.23;;;19.03;;